Time;durP1;ratioP1;P1;durP2;ratioP2;P2;SDS_P1;SDS_P2;PMS_P1;PMS_P2;Temp;Humidity;BMP_temperature;BMP_pressure;BME280_temperature;BME280_humidity;BME280_pressure;Samples;Min_cycle;Max_cycle;Signal;HPM_P1;HPM_P2
2021/03/01 00:01:40;;;;;;;13.80;9.15;;;;;;;1.08;83.86;101197.91;1805405;79;21239;-71
2021/03/01 00:04:08;;;;;;;12.50;8.93;;;;;;;1.06;83.92;101193.34;1810308;77;21180;-73
2021/03/01 00:06:37;;;;;;;10.15;7.05;;;;;;;1.03;84.03;101201.59;1798154;77;21160;-73
2021/03/01 00:09:06;;;;;;;9.43;6.45;;;;;;;1.04;84.13;101208.98;1803277;77;21164;-73
2021/03/01 00:11:34;;;;;;;8.85;6.10;;;;;;;0.97;84.27;101208.88;1828441;77;21112;-72
2021/03/01 00:14:03;;;;;;;8.10;5.72;;;;;;;0.93;84.42;101216.30;1812938;77;21357;-73
2021/03/01 00:16:31;;;;;;;7.80;5.40;;;;;;;0.88;84.60;101230.47;1818629;77;21177;-74
2021/03/01 00:19:00;;;;;;;7.85;5.30;;;;;;;0.85;84.78;101228.19;1810113;77;21179;-72
2021/03/01 00:21:27;;;;;;;6.97;4.97;;;;;;;0.85;84.90;101235.27;1824022;77;21140;-72
2021/03/01 00:23:55;;;;;;;7.60;5.22;;;;;;;0.83;84.99;101231.52;1822113;77;21668;-72
2021/03/01 00:26:22;;;;;;;5.95;4.58;;;;;;;0.82;85.10;101231.67;1818957;77;21200;-73
2021/03/01 00:28:50;;;;;;;6.37;4.17;;;;;;;0.84;85.19;101232.33;1816240;77;21597;-73
2021/03/01 00:31:17;;;;;;;7.53;5.67;;;;;;;0.86;85.24;101229.03;1836516;75;21440;-73
2021/03/01 00:33:45;;;;;;;6.03;4.30;;;;;;;0.85;85.24;101230.01;1810825;78;21236;-73
2021/03/01 00:36:15;;;;;;;7.80;5.45;;;;;;;0.87;85.28;101234.11;1825481;76;21189;-73
2021/03/01 00:38:42;;;;;;;6.35;4.60;;;;;;;0.90;85.33;101221.92;1825858;78;21185;-72
2021/03/01 00:41:10;;;;;;;6.97;4.50;;;;;;;0.94;85.33;101213.98;1815921;76;21184;-73
2021/03/01 00:43:38;;;;;;;6.28;4.90;;;;;;;1.01;85.29;101227.75;1816396;77;21167;-72
2021/03/01 00:46:06;;;;;;;6.33;4.33;;;;;;;1.03;85.29;101221.83;1809377;77;21150;-74
2021/03/01 00:48:33;;;;;;;5.95;4.47;;;;;;;1.09;85.27;101229.83;1811048;77;21227;-73
2021/03/01 00:51:03;;;;;;;8.10;5.17;;;;;;;1.14;85.20;101231.41;1814427;78;21799;-74
2021/03/01 00:53:31;;;;;;;6.10;4.75;;;;;;;1.17;85.11;101237.63;1802804;77;21748;-74
2021/03/01 00:55:59;;;;;;;7.70;5.08;;;;;;;1.21;85.08;101238.09;1815247;77;21167;-74
2021/03/01 00:58:27;;;;;;;6.65;4.70;;;;;;;1.28;84.99;101243.45;1808335;77;21194;-73
2021/03/01 01:00:54;;;;;;;5.72;3.72;;;;;;;1.33;84.86;101241.12;1814975;77;21215;-75
2021/03/01 01:03:22;;;;;;;6.87;4.62;;;;;;;1.36;84.71;101253.92;1817185;78;21375;-75
2021/03/01 01:06:03;;;;;;;7.40;5.53;;;;;;;1.34;84.56;101259.34;1803789;79;23401;-76
2021/03/01 01:08:31;;;;;;;6.37;4.40;;;;;;;1.26;84.54;101266.02;1780395;80;21139;-76
2021/03/01 01:10:59;;;;;;;6.72;5.12;;;;;;;1.22;84.48;101280.53;1723811;82;21785;-75
2021/03/01 01:13:26;;;;;;;7.05;5.37;;;;;;;1.14;84.46;101282.71;1749871;81;21663;-76
2021/03/01 01:15:54;;;;;;;7.53;5.00;;;;;;;1.11;84.47;101288.33;1722599;82;21121;-76
2021/03/01 01:18:22;;;;;;;7.10;4.33;;;;;;;1.08;84.49;101305.78;1741339;80;21624;-78
2021/03/01 01:20:50;;;;;;;6.65;4.35;;;;;;;1.05;84.51;101305.31;1771613;79;21228;-75
2021/03/01 01:23:18;;;;;;;6.25;4.22;;;;;;;1.00;84.51;101307.67;1777990;79;21765;-77
2021/03/01 01:25:46;;;;;;;5.45;3.62;;;;;;;0.97;84.55;101315.41;1732311;81;21220;-77
2021/03/01 01:28:13;;;;;;;5.58;3.70;;;;;;;0.94;84.62;101321.83;1743858;80;21089;-74
2021/03/01 01:30:41;;;;;;;5.60;3.80;;;;;;;0.91;84.72;101322.67;1742024;81;21149;-76
2021/03/01 01:33:08;;;;;;;6.12;4.10;;;;;;;0.90;84.81;101330.25;1740055;81;21185;-77
2021/03/01 01:35:36;;;;;;;6.03;3.95;;;;;;;0.86;84.87;101336.36;1776390;80;21213;-75
2021/03/01 01:38:05;;;;;;;5.97;4.00;;;;;;;0.85;84.91;101346.53;1780336;80;21208;-75
2021/03/01 01:40:34;;;;;;;6.92;3.95;;;;;;;0.82;84.98;101349.52;1768795;79;21168;-76
2021/03/01 01:43:01;;;;;;;6.10;4.40;;;;;;;0.84;85.05;101355.43;1767166;80;21490;-76
2021/03/01 01:45:30;;;;;;;5.60;4.10;;;;;;;0.83;85.11;101363.00;1778299;79;21148;-78
2021/03/01 01:47:57;;;;;;;5.87;4.05;;;;;;;0.84;85.18;101362.50;1770297;81;21211;-78
2021/03/01 01:50:27;;;;;;;5.58;3.72;;;;;;;0.84;85.22;101362.50;1756615;80;21189;-76
2021/03/01 01:52:55;;;;;;;5.47;4.10;;;;;;;0.83;85.26;101363.00;1754243;80;21200;-75
2021/03/01 01:55:24;;;;;;;5.78;3.90;;;;;;;0.83;85.32;101368.27;1729738;81;21155;-75
2021/03/01 01:57:52;;;;;;;5.12;3.77;;;;;;;0.83;85.37;101366.95;1762196;81;21160;-76
2021/03/01 02:03:44;;;;;;;5.03;3.77;;;;;;;0.84;85.46;101358.56;1744236;81;21092;-75
2021/03/01 02:06:33;;;;;;;4.47;3.62;;;;;;;0.86;85.51;101360.53;1744322;81;21163;-75
2021/03/01 02:09:19;;;;;;;4.87;3.70;;;;;;;0.90;85.52;101356.55;1758667;81;21180;-76
2021/03/01 02:12:16;;;;;;;5.75;3.95;;;;;;;0.95;85.51;101367.36;1749534;80;21509;-77
2021/03/01 02:15:02;;;;;;;6.15;4.37;;;;;;;1.02;85.52;101364.85;1772928;80;21222;-75
2021/03/01 02:17:32;;;;;;;6.12;4.47;;;;;;;1.07;85.46;101372.55;1779817;80;21211;-77
2021/03/01 02:20:00;;;;;;;6.20;4.50;;;;;;;1.08;85.38;101374.18;1780905;79;21181;-76
2021/03/01 02:22:29;;;;;;;6.20;4.65;;;;;;;1.09;85.30;101373.71;1766819;80;21298;-76
2021/03/01 02:25:06;;;;;;;5.87;4.78;;;;;;;1.07;85.27;101367.29;1747882;81;21211;-76
2021/03/01 02:27:44;;;;;;;7.50;5.05;;;;;;;1.07;85.21;101363.34;1742980;80;21385;-76
2021/03/01 02:30:30;;;;;;;6.25;5.12;;;;;;;1.10;85.21;101366.94;1740020;81;21203;-76
2021/03/01 02:33:19;;;;;;;7.07;5.60;;;;;;;1.21;85.16;101371.48;1810120;79;22413;-71
2021/03/01 02:35:52;;;;;;;8.23;5.80;;;;;;;1.17;85.10;101381.53;1790909;78;21518;-73
2021/03/01 02:38:26;;;;;;;7.53;5.60;;;;;;;1.22;85.06;101388.89;1781043;78;21745;31
2021/03/01 02:40:55;;;;;;;7.28;5.50;;;;;;;1.24;84.97;101402.70;1702264;82;21222;-74
2021/03/01 02:43:23;;;;;;;8.05;5.72;;;;;;;1.22;84.93;101408.16;1707947;82;21599;-73
2021/03/01 02:45:50;;;;;;;7.58;5.42;;;;;;;1.19;84.88;101417.72;1675005;84;21193;-74
2021/03/01 02:48:18;;;;;;;7.35;5.28;;;;;;;1.13;84.84;101411.83;1694649;83;21234;-74
2021/03/01 02:50:46;;;;;;;6.95;4.83;;;;;;;1.08;84.86;101425.48;1723549;81;22747;-74
2021/03/01 02:53:14;;;;;;;7.45;4.95;;;;;;;1.05;84.89;101425.02;1731821;81;21236;-74
2021/03/01 02:55:44;;;;;;;6.12;4.15;;;;;;;0.98;84.93;101438.04;1752166;80;21160;-74
2021/03/01 02:58:12;;;;;;;7.30;5.15;;;;;;;0.94;85.02;101437.56;1740156;81;21201;-73
2021/03/01 03:00:40;;;;;;;6.60;5.00;;;;;;;0.89;85.11;101433.33;1716374;81;21186;-72
2021/03/01 03:03:10;;;;;;;6.15;4.80;;;;;;;0.87;85.18;101441.06;1740485;81;21182;-73
2021/03/01 03:05:39;;;;;;;6.58;5.05;;;;;;;0.89;85.27;101450.92;1737828;81;21210;-73
2021/03/01 03:08:08;;;;;;;6.85;4.97;;;;;;;0.89;85.37;101447.80;1732584;81;21246;-73
2021/03/01 03:10:37;;;;;;;6.83;5.15;;;;;;;0.88;85.40;101453.21;1735407;81;21157;-73
2021/03/01 03:13:05;;;;;;;7.45;5.10;;;;;;;0.84;85.44;101449.29;1733656;81;21203;-73
2021/03/01 03:15:33;;;;;;;7.00;5.45;;;;;;;0.82;85.50;101454.70;1736392;81;21466;-73
2021/03/01 03:18:03;;;;;;;6.80;5.30;;;;;;;0.84;85.56;101463.25;1740390;81;21184;-73
2021/03/01 03:20:31;;;;;;;7.78;5.25;;;;;;;0.84;85.62;101475.59;1737860;81;21203;-73
2021/03/01 03:22:59;;;;;;;7.40;5.78;;;;;;;0.84;85.66;101475.59;1735051;81;22308;-72
2021/03/01 03:25:27;;;;;;;8.28;6.33;;;;;;;0.83;85.69;101476.09;1711069;81;21269;-74
2021/03/01 03:27:54;;;;;;;8.43;6.30;;;;;;;0.81;85.73;101481.19;1737448;81;22134;-74
2021/03/01 03:30:24;;;;;;;8.45;6.15;;;;;;;0.85;85.80;101484.61;1729652;81;21207;-74
2021/03/01 03:32:52;;;;;;;8.25;6.62;;;;;;;0.86;85.81;101487.59;1741832;81;21131;-74
2021/03/01 03:35:20;;;;;;;8.75;6.62;;;;;;;0.86;85.82;101489.41;1735482;81;21196;-75
2021/03/01 03:38:07;;;;;;;9.00;6.95;;;;;;;0.85;85.82;101493.81;1727853;81;21167;-74
2021/03/01 03:40:35;;;;;;;8.60;6.60;;;;;;;0.86;85.88;101488.91;1744164;81;22250;-74
2021/03/01 03:43:04;;;;;;;8.40;6.25;;;;;;;0.93;85.96;101500.38;1733199;81;21203;-74
2021/03/01 03:45:31;;;;;;;9.33;6.45;;;;;;;0.99;85.92;101500.20;1749530;81;21124;-73
2021/03/01 03:48:03;;;;;;;9.98;7.22;;;;;;;1.01;85.88;101506.59;1733911;81;21082;-74
2021/03/01 03:50:32;;;;;;;11.08;8.30;;;;;;;1.04;85.86;101502.31;1738871;81;21203;-74
2021/03/01 03:53:07;;;;;;;10.25;8.00;;;;;;;1.09;85.81;101500.81;1734639;81;21385;-73
2021/03/01 03:55:35;;;;;;;11.40;7.87;;;;;;;1.13;85.73;101503.42;1736594;81;21203;-73
2021/03/01 03:58:08;;;;;;;9.05;7.05;;;;;;;1.17;85.69;101507.34;1740651;81;21151;-73
2021/03/01 04:00:35;;;;;;;8.25;6.10;;;;;;;1.20;85.64;101506.69;1738759;81;21187;-73
2021/03/01 04:03:12;;;;;;;6.78;5.40;;;;;;;1.20;85.53;101494.34;1738633;81;21174;-74
2021/03/01 04:05:41;;;;;;;6.42;4.67;;;;;;;1.21;85.44;101498.60;1735388;81;21396;-73
2021/03/01 04:08:11;;;;;;;7.55;5.28;;;;;;;1.23;85.30;101497.13;1741788;81;21080;-74
2021/03/01 04:10:43;;;;;;;6.12;4.80;;;;;;;1.22;85.16;101496.79;1735518;81;21218;-75
2021/03/01 04:13:13;;;;;;;5.22;3.95;;;;;;;1.21;85.06;101493.84;1705997;82;21176;-74
2021/03/01 04:15:42;;;;;;;6.72;4.90;;;;;;;1.20;84.95;101501.42;1742014;81;21140;-74
2021/03/01 04:18:09;;;;;;;5.67;4.75;;;;;;;1.16;84.84;101504.89;1729547;81;22353;-74
2021/03/01 04:20:37;;;;;;;6.33;4.83;;;;;;;1.19;84.82;101507.69;1694629;82;21188;-73
2021/03/01 04:23:06;;;;;;;6.25;5.15;;;;;;;1.23;84.75;101511.61;1736805;81;21226;-74
2021/03/01 04:25:34;;;;;;;6.12;4.90;;;;;;;1.26;84.66;101516.53;1710283;81;21237;-74
2021/03/01 04:28:02;;;;;;;7.60;5.58;;;;;;;1.30;84.57;101530.98;1709691;82;21583;-74
2021/03/01 04:30:30;;;;;;;7.53;5.53;;;;;;;1.36;84.52;101522.40;1740766;81;22049;-74
2021/03/01 04:32:57;;;;;;;6.97;5.70;;;;;;;1.43;84.41;101526.48;1725845;81;21246;-73
2021/03/01 04:35:26;;;;;;;8.43;6.10;;;;;;;1.48;84.36;101526.29;1743876;80;21253;-73
2021/03/01 04:37:53;;;;;;;8.63;6.35;;;;;;;1.53;84.24;101525.25;1715503;81;21218;-73
2021/03/01 04:40:22;;;;;;;8.95;6.70;;;;;;;1.57;84.16;101528.36;1723912;81;21171;-73
2021/03/01 04:42:49;;;;;;;10.23;7.10;;;;;;;1.59;84.03;101525.06;1736464;81;21836;-73
2021/03/01 04:45:18;;;;;;;10.53;7.58;;;;;;;1.60;83.92;101527.52;1727737;81;21154;-74
2021/03/01 04:47:49;;;;;;;10.00;7.60;;;;;;;1.60;83.79;101526.70;1740115;81;21247;-73
2021/03/01 04:50:19;;;;;;;8.60;6.83;;;;;;;1.60;83.71;101538.05;1733289;81;29205;-72
2021/03/01 04:52:46;;;;;;;9.83;7.50;;;;;;;1.60;83.63;101535.91;1733827;80;21186;-73
2021/03/01 04:55:15;;;;;;;8.70;6.85;;;;;;;1.62;83.61;101542.66;1730860;81;21396;-74
2021/03/01 04:57:42;;;;;;;9.95;7.22;;;;;;;1.67;83.51;101551.84;1732305;81;21595;-73
2021/03/01 05:00:11;;;;;;;11.00;7.55;;;;;;;1.62;83.36;101553.69;1731518;81;21147;-74
2021/03/01 05:02:39;;;;;;;9.15;7.55;;;;;;;1.61;83.34;101557.30;1738059;81;21152;-74
2021/03/01 05:05:10;;;;;;;9.08;7.17;;;;;;;1.61;83.27;101555.51;1736571;81;21231;-74
2021/03/01 05:07:37;;;;;;;9.08;7.30;;;;;;;1.63;83.18;101560.59;1736199;81;21165;-74
2021/03/01 05:10:06;;;;;;;8.68;6.70;;;;;;;1.60;83.14;101561.75;1737048;81;21246;-74
2021/03/01 05:12:34;;;;;;;8.55;6.97;;;;;;;1.62;83.16;101568.98;1739042;80;21607;-74
2021/03/01 05:15:04;;;;;;;9.88;7.47;;;;;;;1.64;83.12;101565.66;1736960;81;21169;-74
2021/03/01 05:17:31;;;;;;;9.38;7.70;;;;;;;1.69;83.13;101575.70;1731448;81;21127;-74
2021/03/01 05:20:01;;;;;;;9.70;7.50;;;;;;;1.73;83.01;101593.30;1717464;81;21393;-74
2021/03/01 05:22:29;;;;;;;11.18;8.33;;;;;;;1.74;82.93;101593.61;1741601;80;21202;-75
2021/03/01 05:24:56;;;;;;;10.03;8.43;;;;;;;1.75;82.89;101597.90;1728349;81;21583;-74
2021/03/01 05:27:24;;;;;;;9.98;8.08;;;;;;;1.77;82.79;101609.06;1743001;80;21108;-74
2021/03/01 05:29:53;;;;;;;9.65;8.05;;;;;;;1.78;82.74;101614.17;1734150;80;21068;-74
2021/03/01 05:32:21;;;;;;;10.63;8.20;;;;;;;1.77;82.64;101616.97;1738894;81;22746;-74
2021/03/01 05:34:49;;;;;;;11.95;8.75;;;;;;;1.75;82.56;101620.29;1734186;81;21210;-74
2021/03/01 05:37:16;;;;;;;12.37;8.90;;;;;;;1.74;82.53;101619.94;1734788;81;21321;-74
2021/03/01 05:39:44;;;;;;;10.10;7.92;;;;;;;1.76;82.49;101621.42;1734449;81;21273;-74
2021/03/01 05:42:18;;;;;;;11.08;8.45;;;;;;;1.74;82.43;101625.20;1736914;81;21081;-74
2021/03/01 05:44:46;;;;;;;12.13;8.68;;;;;;;1.73;82.43;101628.34;1735812;81;21914;-76
2021/03/01 05:47:14;;;;;;;11.05;8.53;;;;;;;1.72;82.39;101633.80;1734098;81;21191;-74
2021/03/01 05:49:43;;;;;;;12.30;9.18;;;;;;;1.73;82.40;101642.02;1757377;81;21224;-75
2021/03/01 05:52:11;;;;;;;10.48;8.08;;;;;;;1.74;82.37;101647.59;1742221;81;21142;-75
2021/03/01 05:54:39;;;;;;;12.98;9.98;;;;;;;1.77;82.35;101652.53;1709347;80;21204;-74
2021/03/01 05:57:07;;;;;;;11.08;9.08;;;;;;;1.76;82.31;101656.98;1739483;81;22275;-74
2021/03/01 05:59:36;;;;;;;12.70;9.20;;;;;;;1.76;82.29;101660.92;1733752;82;21114;-74
2021/03/01 06:02:06;;;;;;;11.45;9.18;;;;;;;1.74;82.30;101660.27;1708302;82;21683;-74
2021/03/01 06:04:33;;;;;;;11.78;9.18;;;;;;;1.75;82.28;101665.88;1694363;82;21631;-74
2021/03/01 06:07:01;;;;;;;9.95;8.18;;;;;;;1.75;82.24;101672.97;1733573;81;21184;-74
2021/03/01 06:09:29;;;;;;;10.35;8.38;;;;;;;1.76;82.22;101674.59;1727435;81;22058;-74
2021/03/01 06:11:56;;;;;;;9.93;7.67;;;;;;;1.74;82.21;101684.47;1731370;81;21115;-74
2021/03/01 06:14:24;;;;;;;9.90;7.75;;;;;;;1.73;82.23;101693.38;1736399;81;21662;-74
2021/03/01 06:17:13;;;;;;;10.43;8.15;;;;;;;1.72;82.24;101697.83;1730041;81;21780;-73
2021/03/01 06:19:51;;;;;;;11.48;9.03;;;;;;;1.72;82.27;101703.09;1707153;82;21137;-72
2021/03/01 06:22:26;;;;;;;12.37;8.75;;;;;;;1.73;82.29;101710.00;1703418;82;21627;-73
2021/03/01 06:25:17;;;;;;;11.12;8.45;;;;;;;1.71;82.28;101711.16;1697813;82;21185;-73
2021/03/01 06:27:49;;;;;;;10.32;8.68;;;;;;;1.68;82.22;101716.28;1733310;81;21246;-73
2021/03/01 06:30:20;;;;;;;10.45;8.73;;;;;;;1.66;82.24;101727.47;1738332;81;21213;-73
2021/03/01 06:33:15;;;;;;;13.58;9.23;;;;;;;1.63;82.25;101733.08;1704369;82;21145;-73
2021/03/01 06:35:55;;;;;;;11.37;9.07;;;;;;;1.68;82.33;101732.09;1838168;77;22665;-74
2021/03/01 06:38:36;;;;;;;12.33;9.58;;;;;;;1.63;82.34;101737.84;1797114;79;21136;-73
2021/03/01 06:41:14;;;;;;;13.70;10.03;;;;;;;1.66;82.37;101745.91;1790505;78;21368;-74
2021/03/01 06:43:59;;;;;;;12.82;9.58;;;;;;;1.69;82.35;101755.30;1800110;78;21356;-74
2021/03/01 06:46:30;;;;;;;12.58;9.40;;;;;;;1.68;82.27;101762.84;1805014;78;21151;-74
2021/03/01 06:49:15;;;;;;;10.10;8.33;;;;;;;1.70;82.28;101763.01;1787404;78;21587;-74
2021/03/01 06:51:44;;;;;;;10.28;8.10;;;;;;;1.70;82.26;101768.28;1782238;79;21057;-73
2021/03/01 06:54:23;;;;;;;10.63;8.53;;;;;;;1.72;82.14;101757.59;1793924;79;21408;-73
2021/03/01 06:56:51;;;;;;;10.65;8.18;;;;;;;1.73;82.13;101765.81;1766777;79;21159;-73
2021/03/01 06:59:19;;;;;;;12.33;8.95;;;;;;;1.76;82.16;101756.25;1792771;79;21130;-73
2021/03/01 07:01:56;;;;;;;12.55;8.80;;;;;;;1.80;82.13;101761.50;1790895;79;21136;-73
2021/03/01 07:04:28;;;;;;;12.10;8.68;;;;;;;1.81;82.08;101763.98;1780908;79;21183;-74
2021/03/01 07:06:58;;;;;;;9.78;8.23;;;;;;;1.83;82.00;101766.44;1795384;79;21360;-73
2021/03/01 07:09:29;;;;;;;12.07;8.25;;;;;;;1.84;81.91;101766.75;1791892;79;21191;-73
2021/03/01 07:11:57;;;;;;;12.60;8.70;;;;;;;1.85;81.82;101761.83;1789697;79;21104;-74
2021/03/01 07:14:28;;;;;;;14.63;10.70;;;;;;;1.88;81.80;101770.72;1789445;79;21165;-74
2021/03/01 07:16:57;;;;;;;15.20;11.08;;;;;;;1.95;81.71;101773.49;1783491;78;21162;-74
2021/03/01 07:19:29;;;;;;;18.07;11.30;;;;;;;1.99;81.66;101774.78;1792387;79;22566;-74
2021/03/01 07:22:04;;;;;;;20.27;11.65;;;;;;;2.06;81.56;101784.97;1781212;79;21599;-74
2021/03/01 07:24:32;;;;;;;14.95;10.48;;;;;;;2.08;81.42;101785.63;1789485;79;21152;-75
2021/03/01 07:27:04;;;;;;;15.75;9.53;;;;;;;2.10;81.32;101794.17;1789800;79;21643;-73
2021/03/01 07:29:36;;;;;;;18.35;9.53;;;;;;;2.07;81.16;101797.99;1796815;79;21072;-75
2021/03/01 07:32:12;;;;;;;18.05;9.58;;;;;;;2.08;81.17;101806.21;1809145;78;21620;-74
2021/03/01 07:34:40;;;;;;;17.73;9.48;;;;;;;2.09;81.18;101805.71;1804128;79;21195;-75
2021/03/01 07:37:09;;;;;;;17.50;9.98;;;;;;;2.13;81.15;101807.01;1770260;78;21234;-75
2021/03/01 07:39:37;;;;;;;18.57;10.60;;;;;;;2.17;81.11;101807.48;1797813;79;21187;-75
2021/03/01 07:42:06;;;;;;;17.05;10.43;;;;;;;2.23;81.09;101804.17;1780690;79;21129;-76
2021/03/01 07:44:34;;;;;;;17.75;11.68;;;;;;;2.29;81.05;101808.77;1786542;79;21404;-74
2021/03/01 07:47:04;;;;;;;19.07;11.93;;;;;;;2.37;80.99;101807.42;1780628;78;21128;-75
2021/03/01 07:49:45;;;;;;;15.72;11.75;;;;;;;2.46;80.87;101806.87;1796587;79;21206;-75
2021/03/01 07:52:31;;;;;;;17.17;11.78;;;;;;;2.51;80.68;101802.73;1794987;79;21667;-75
2021/03/01 07:55:11;;;;;;;14.58;10.18;;;;;;;2.59;80.54;101802.67;1794948;79;21147;-74
2021/03/01 07:57:40;;;;;;;16.12;11.40;;;;;;;2.69;80.09;101806.91;1788383;78;21179;-75
2021/03/01 08:00:30;;;;;;;13.68;9.65;;;;;;;2.67;79.81;101806.28;1797269;79;21947;-75
2021/03/01 08:02:58;;;;;;;15.08;10.72;;;;;;;2.70;79.74;101812.03;1780362;77;21194;-74
2021/03/01 08:05:32;;;;;;;15.23;11.70;;;;;;;2.76;79.52;101804.73;1783298;77;21631;-75
2021/03/01 08:08:02;;;;;;;17.45;11.63;;;;;;;2.86;79.39;101814.22;1798409;77;22624;-76
2021/03/01 08:10:38;;;;;;;14.45;9.90;;;;;;;2.96;79.11;101816.13;1792370;79;22049;-77
2021/03/01 08:13:08;;;;;;;14.35;9.33;;;;;;;3.00;78.74;101818.77;1793112;79;21292;-77
2021/03/01 08:15:41;;;;;;;16.00;9.80;;;;;;;2.98;78.25;101820.75;1791824;79;21214;-76
2021/03/01 08:18:13;;;;;;;12.63;9.05;;;;;;;2.94;78.13;101824.73;1793388;79;21223;-76
2021/03/01 08:20:44;;;;;;;11.48;7.75;;;;;;;2.94;78.04;101826.87;1798108;79;21214;-76
2021/03/01 08:23:14;;;;;;;;;;;;;;;2.95;77.91;101829.83;1788737;79;21290;-76
2021/03/01 08:28:37;;;;;;;9.93;7.60;;;;;;;2.79;77.63;101839.16;1765062;79;22780;-76
2021/03/01 08:31:21;;;;;;;10.78;7.12;;;;;;;2.65;77.74;101846.51;1727759;82;21204;-77
2021/03/01 08:33:49;;;;;;;8.50;6.70;;;;;;;2.55;77.98;101853.31;1769167;80;21798;-74
2021/03/01 08:36:22;;;;;;;10.00;7.10;;;;;;;2.46;77.97;101860.42;1771234;80;21305;-75
2021/03/01 08:38:54;;;;;;;9.70;6.83;;;;;;;2.42;78.14;101867.05;1772860;79;21157;-79
2021/03/01 08:41:34;;;;;;;;;;;;;;;2.43;78.30;101863.41;1722974;82;21194;-77
2021/03/01 08:44:03;;;;;;;10.48;8.03;;;;;;;2.45;78.34;101867.20;1744440;81;20197;-75
2021/03/01 08:46:31;;;;;;;10.75;8.13;;;;;;;2.43;78.41;101867.36;1697230;82;21354;-78
2021/03/01 08:49:00;;;;;;;10.40;7.67;;;;;;;2.43;78.51;101870.50;1730087;81;21166;-79
2021/03/01 08:51:29;;;;;;;10.48;8.10;;;;;;;2.42;78.49;101874.95;1722110;81;21155;-75
2021/03/01 08:53:57;;;;;;;10.30;7.65;;;;;;;2.39;78.59;101879.75;1732634;82;21154;-75
2021/03/01 08:56:26;;;;;;;10.85;8.10;;;;;;;2.40;78.71;101880.88;1734835;82;21190;-74
2021/03/01 08:58:54;;;;;;;9.78;7.55;;;;;;;2.45;78.79;101879.07;1733067;81;21449;-73
2021/03/01 09:01:22;;;;;;;10.40;7.92;;;;;;;2.55;78.85;101879.19;1725416;81;21556;-73
2021/03/01 09:03:51;;;;;;;11.00;7.80;;;;;;;2.67;78.79;101876.19;1730102;81;21515;-78
2021/03/01 09:06:21;;;;;;;9.23;7.33;;;;;;;2.76;78.75;101894.45;1731717;81;21148;-76
2021/03/01 09:08:56;;;;;;;8.23;6.45;;;;;;;2.88;78.55;101884.31;1732223;81;21139;-75
2021/03/01 09:11:30;;;;;;;8.00;6.20;;;;;;;2.98;78.16;101892.01;1730533;81;21700;-75
2021/03/01 09:14:01;;;;;;;8.15;6.47;;;;;;;3.03;77.90;101885.22;1730682;82;21191;-75
2021/03/01 09:16:31;;;;;;;8.40;6.53;;;;;;;3.12;77.56;101890.44;1724782;81;21524;-75
2021/03/01 09:19:08;;;;;;;7.97;6.25;;;;;;;3.21;77.52;101892.03;1726164;81;21171;-74
2021/03/01 09:21:40;;;;;;;7.70;5.87;;;;;;;3.39;77.23;101897.01;1726219;82;21216;-75
2021/03/01 09:24:12;;;;;;;9.30;7.03;;;;;;;3.56;76.79;101908.30;1738952;82;21158;-73
2021/03/01 09:26:43;;;;;;;8.35;5.70;;;;;;;3.66;76.46;101909.69;1730484;82;21223;-75
2021/03/01 09:29:20;;;;;;;7.03;4.78;;;;;;;3.84;76.01;101907.22;1733124;81;21235;-77
2021/03/01 09:31:53;;;;;;;7.12;5.10;;;;;;;3.95;75.28;101901.02;1734951;81;21227;-74
2021/03/01 09:34:27;;;;;;;7.40;5.30;;;;;;;3.99;74.68;101910.22;1729106;82;21211;-75
2021/03/01 09:37:00;;;;;;;7.60;5.67;;;;;;;4.06;73.95;101910.83;1724531;81;22690;-75
2021/03/01 09:39:28;;;;;;;7.47;5.20;;;;;;;4.03;73.46;101912.00;1704884;82;21230;-76
2021/03/01 09:41:58;;;;;;;7.25;5.20;;;;;;;4.06;73.35;101920.89;1730516;81;21209;-74
2021/03/01 09:44:29;;;;;;;7.80;5.55;;;;;;;4.12;73.02;101922.01;1707294;82;21151;-74
2021/03/01 09:46:58;;;;;;;7.95;5.70;;;;;;;4.20;72.61;101917.95;1734496;81;21140;-73
2021/03/01 09:49:29;;;;;;;8.08;5.65;;;;;;;4.31;72.50;101920.63;1723008;81;21385;-76
2021/03/01 09:51:57;;;;;;;7.40;5.97;;;;;;;4.43;72.08;101925.29;1725020;81;21238;-76
2021/03/01 09:54:26;;;;;;;6.65;5.15;;;;;;;4.55;71.68;101927.50;1696665;82;21192;-75
2021/03/01 09:56:56;;;;;;;8.53;6.62;;;;;;;4.61;71.21;101928.09;1732019;82;21191;-76
2021/03/01 09:59:39;;;;;;;8.13;5.80;;;;;;;4.66;71.04;101936.28;1733892;81;21163;-75
2021/03/01 10:02:16;;;;;;;6.30;4.87;;;;;;;4.72;70.36;101936.88;1739159;81;22147;-75
2021/03/01 10:04:45;;;;;;;8.60;5.60;;;;;;;4.75;69.93;101935.19;1707887;82;21170;-77
2021/03/01 10:07:23;;;;;;;7.28;5.50;;;;;;;4.73;69.51;101927.92;1737232;81;21254;-75
2021/03/01 10:09:54;;;;;;;6.67;5.25;;;;;;;4.71;69.44;101931.27;1730794;82;21120;-75
2021/03/01 10:12:22;;;;;;;7.10;4.37;;;;;;;4.79;69.54;101924.54;1725373;81;21131;-77
2021/03/01 10:14:59;;;;;;;6.42;5.03;;;;;;;4.94;69.26;101927.17;1725028;82;21669;-77
2021/03/01 10:17:34;;;;;;;7.10;4.70;;;;;;;5.03;68.69;101923.39;1713251;82;21165;-77
2021/03/01 10:20:09;;;;;;;8.08;5.40;;;;;;;5.05;68.02;101924.03;1716971;82;21095;-75
2021/03/01 10:23:07;;;;;;;6.25;4.60;;;;;;;5.10;67.64;101916.36;1703448;83;21115;-75
2021/03/01 10:25:40;;;;;;;8.30;5.70;;;;;;;5.17;67.35;101913.78;1721248;81;21167;-74
2021/03/01 10:28:28;;;;;;;8.00;4.53;;;;;;;5.18;67.11;101912.26;1718233;82;21376;-74
2021/03/01 10:31:06;;;;;;;7.78;5.47;;;;;;;5.19;66.87;101915.72;1715613;81;21211;-74
2021/03/01 10:34:04;;;;;;;8.28;5.65;;;;;;;5.20;66.49;101908.59;1726740;82;21150;-74
2021/03/01 10:36:47;;;;;;;8.80;6.00;;;;;;;5.22;66.49;101907.41;1729736;81;21199;-75
2021/03/01 10:39:33;;;;;;;10.48;5.78;;;;;;;5.21;66.20;101897.83;1734802;82;21775;-75
2021/03/01 10:42:13;;;;;;;12.60;7.75;;;;;;;5.16;66.22;101906.83;1722924;82;21950;-73
2021/03/01 10:44:56;;;;;;;10.90;6.92;;;;;;;5.12;66.34;101898.95;1725874;81;21303;-76
2021/03/01 10:47:30;;;;;;;9.05;5.60;;;;;;;5.13;66.52;101899.25;1732057;82;21171;-76
2021/03/01 10:50:01;;;;;;;10.03;6.55;;;;;;;5.11;66.19;101895.99;1767160;79;21222;-75
2021/03/01 10:52:29;;;;;;;;;;;;;;;5.05;66.09;101903.36;1768251;79;21163;-76
2021/03/01 10:54:58;;;;;;;12.93;8.35;;;;;;;4.95;66.31;101906.30;1770929;80;21374;-75
2021/03/01 10:57:26;;;;;;;12.15;8.13;;;;;;;4.74;66.59;101897.82;1768668;80;21198;-77
2021/03/01 10:59:58;;;;;;;14.73;8.00;;;;;;;4.57;67.10;101903.80;1766518;80;21606;-74
2021/03/01 11:02:26;;;;;;;13.80;8.70;;;;;;;4.41;67.41;101906.16;1766838;80;21121;-74
2021/03/01 11:04:54;;;;;;;12.28;8.85;;;;;;;4.27;67.90;101908.78;1765390;79;21586;-74
2021/03/01 11:07:21;;;;;;;10.95;7.22;;;;;;;4.18;68.39;101919.97;1762288;80;21547;-75
2021/03/01 11:09:49;;;;;;;11.45;8.00;;;;;;;4.06;68.73;101918.25;1768793;79;21186;-76
2021/03/01 11:12:17;;;;;;;12.55;8.05;;;;;;;3.95;69.10;101913.41;1769327;79;21809;-76
2021/03/01 11:14:45;;;;;;;9.55;6.62;;;;;;;3.90;69.41;101927.66;1772769;80;21163;-75
2021/03/01 11:17:13;;;;;;;9.00;6.45;;;;;;;3.90;69.62;101923.69;1777610;79;21191;-76
2021/03/01 11:19:41;;;;;;;9.03;6.45;;;;;;;3.90;69.72;101924.51;1757607;79;22373;-76
2021/03/01 11:22:09;;;;;;;8.90;6.17;;;;;;;3.93;69.87;101920.19;1765141;79;21207;-76
2021/03/01 11:24:37;;;;;;;8.40;6.33;;;;;;;4.01;69.86;101920.60;1770103;79;21197;-76
2021/03/01 11:27:05;;;;;;;8.23;6.25;;;;;;;4.08;69.83;101923.34;1765327;79;21151;-75
2021/03/01 11:29:33;;;;;;;10.05;6.72;;;;;;;4.14;69.78;101912.87;1770315;79;21182;-75
2021/03/01 11:32:01;;;;;;;10.10;6.90;;;;;;;4.18;69.61;101916.81;1772357;79;21171;-76
2021/03/01 11:34:30;;;;;;;8.28;5.75;;;;;;;4.23;69.58;101919.72;1764686;79;21229;-76
2021/03/01 11:36:57;;;;;;;8.80;6.08;;;;;;;4.31;69.31;101916.19;1758799;79;21179;-74
2021/03/01 11:39:25;;;;;;;11.33;6.87;;;;;;;4.37;69.07;101913.30;1763956;79;21123;-75
2021/03/01 11:41:52;;;;;;;11.57;7.75;;;;;;;4.44;68.96;101916.38;1776058;79;21143;-75
2021/03/01 11:44:22;;;;;;;9.35;6.87;;;;;;;4.53;68.75;101918.91;1769942;79;21402;-74
2021/03/01 11:46:49;;;;;;;11.60;7.28;;;;;;;4.60;68.26;101919.81;1769507;79;21167;-74
2021/03/01 11:49:18;;;;;;;12.90;8.03;;;;;;;4.66;67.92;101915.11;1764484;79;21096;-76
2021/03/01 11:51:45;;;;;;;11.93;7.17;;;;;;;4.71;67.68;101918.04;1765112;79;21301;-76
2021/03/01 11:54:13;;;;;;;11.43;7.85;;;;;;;4.76;67.57;101912.18;1767419;79;21185;-76
2021/03/01 11:56:42;;;;;;;10.38;7.22;;;;;;;4.80;67.15;101914.77;1771417;79;22373;-75